Time;durP1;ratioP1;P1;durP2;ratioP2;P2;SDS_P1;SDS_P2;PMS_P1;PMS_P2;Temp;Humidity;BMP_temperature;BMP_pressure;BME280_temperature;BME280_humidity;BME280_pressure;Samples;Min_cycle;Max_cycle;Signal;HPM_P1;HPM_P2
2022/10/24 00:00:29;;;;;;;10.13;9.63;;;;;;;9.07;100.00;101350.25;5087667;28;20028;-62
2022/10/24 00:02:54;;;;;;;10.07;9.57;;;;;;;9.01;100.00;101356.13;5086183;28;20379;-63
2022/10/24 00:05:20;;;;;;;9.50;9.07;;;;;;;8.89;100.00;101346.72;5088999;28;20034;-62
2022/10/24 00:07:48;;;;;;;9.90;9.40;;;;;;;8.90;100.00;101358.97;5082993;28;20031;-62
2022/10/24 00:10:13;;;;;;;9.85;9.35;;;;;;;8.92;100.00;101359.66;5080225;28;20051;-63
2022/10/24 00:12:39;;;;;;;9.75;9.25;;;;;;;8.90;100.00;101355.47;5083531;28;20056;-63
2022/10/24 00:15:06;;;;;;;9.30;8.90;;;;;;;9.03;100.00;101350.69;5083910;28;20040;-63
2022/10/24 00:17:32;;;;;;;9.48;9.05;;;;;;;8.96;100.00;101352.25;5087897;28;20158;-63
2022/10/24 00:19:59;;;;;;;9.88;9.38;;;;;;;8.97;100.00;101349.47;5082840;28;20112;-63
2022/10/24 00:22:25;;;;;;;9.70;9.20;;;;;;;8.94;100.00;101346.25;5086353;28;20031;-62
2022/10/24 00:24:51;;;;;;;10.20;9.70;;;;;;;8.92;100.00;101337.66;5085738;28;20619;-63
2022/10/24 00:27:16;;;;;;;10.18;9.68;;;;;;;8.76;100.00;101333.78;5087706;28;20099;-62
2022/10/24 00:29:42;;;;;;;9.85;9.35;;;;;;;8.77;100.00;101331.97;5082000;28;20483;-62
2022/10/24 00:32:07;;;;;;;9.65;9.15;;;;;;;8.83;100.00;101332.25;5077665;28;20352;-62
2022/10/24 00:34:33;;;;;;;9.80;9.30;;;;;;;8.74;100.00;101326.94;5084938;28;20035;-62
2022/10/24 00:36:59;;;;;;;9.68;9.23;;;;;;;8.68;100.00;101328.38;5088244;28;20020;-63
2022/10/24 00:39:24;;;;;;;9.70;9.20;;;;;;;8.62;100.00;101322.81;5082511;28;20509;-63
2022/10/24 00:41:53;;;;;;;10.13;9.63;;;;;;;8.73;100.00;101327.94;5081002;28;20036;-63
2022/10/24 00:44:20;;;;;;;9.82;9.32;;;;;;;8.69;100.00;101324.75;5084577;28;20042;-63
2022/10/24 00:46:51;;;;;;;9.80;9.30;;;;;;;8.68;100.00;101330.19;5083611;28;20025;-63
2022/10/24 00:49:21;;;;;;;9.60;9.10;;;;;;;8.63;100.00;101322.69;5080933;28;20078;-63
2022/10/24 00:51:51;;;;;;;9.82;9.32;;;;;;;8.66;100.00;101325.03;5084342;28;20048;-63
2022/10/24 00:54:17;;;;;;;10.00;9.50;;;;;;;8.67;100.00;101329.38;5081715;28;20028;-63
2022/10/24 00:57:12;;;;;;;9.75;9.25;;;;;;;8.67;100.00;101323.25;5081125;28;20491;-63
2022/10/24 00:59:40;;;;;;;9.35;8.95;;;;;;;8.63;100.00;101324.50;5066044;28;20031;-63
2022/10/24 01:02:06;;;;;;;9.50;9.07;;;;;;;8.60;100.00;101325.63;5083899;28;20032;-63
2022/10/24 01:04:31;;;;;;;9.82;9.32;;;;;;;8.59;100.00;101318.63;5085956;28;20085;-63
2022/10/24 01:07:28;;;;;;;9.73;9.23;;;;;;;8.69;100.00;101326.56;5084492;28;20051;-63
2022/10/24 01:10:01;;;;;;;10.07;9.57;;;;;;;8.62;100.00;101326.31;5077612;28;20107;-63
2022/10/24 01:12:37;;;;;;;9.75;9.25;;;;;;;8.62;100.00;101320.19;5086608;28;20038;-63
2022/10/24 01:15:16;;;;;;;9.32;8.93;;;;;;;8.61;100.00;101308.78;5084050;28;20107;-63
2022/10/24 01:18:19;;;;;;;9.77;9.27;;;;;;;8.60;100.00;101309.75;5080527;28;20109;-63
2022/10/24 01:20:55;;;;;;;9.98;9.48;;;;;;;8.56;100.00;101317.13;5055169;28;20040;-63
2022/10/24 01:23:51;;;;;;;9.63;9.13;;;;;;;8.56;100.00;101316.28;5085465;28;20482;-63
2022/10/24 01:26:23;;;;;;;9.30;8.90;;;;;;;8.48;100.00;101324.94;5081252;28;20024;-63
2022/10/24 01:29:27;;;;;;;10.10;9.60;;;;;;;8.47;100.00;101317.16;5086656;28;20491;-63
2022/10/24 01:32:21;;;;;;;9.40;8.93;;;;;;;8.47;100.00;101327.72;5075660;28;20048;-63
2022/10/24 01:35:06;;;;;;;10.40;9.90;;;;;;;8.45;100.00;101324.41;5080258;28;20028;-63
2022/10/24 01:37:37;;;;;;;9.25;8.85;;;;;;;8.38;100.00;101334.69;5081609;28;20016;-63
2022/10/24 01:40:13;;;;;;;9.20;8.80;;;;;;;8.28;100.00;101332.00;5082869;28;20028;-63
2022/10/24 01:42:40;;;;;;;9.63;9.15;;;;;;;8.30;100.00;101338.00;5085229;28;20106;-62
2022/10/24 01:45:11;;;;;;;9.48;9.00;;;;;;;8.34;100.00;101330.63;5083766;28;20019;-62
2022/10/24 01:47:42;;;;;;;9.52;9.07;;;;;;;8.23;100.00;101321.03;5081002;28;20028;-63
2022/10/24 01:50:13;;;;;;;9.35;8.95;;;;;;;8.20;100.00;101328.41;5084264;28;20079;-62
2022/10/24 01:52:41;;;;;;;9.77;9.27;;;;;;;8.20;100.00;101331.03;5079453;28;20032;-62
2022/10/24 01:55:07;;;;;;;9.32;8.93;;;;;;;8.15;100.00;101327.97;5083729;28;20024;-62
2022/10/24 01:57:34;;;;;;;9.50;9.00;;;;;;;8.10;100.00;101338.97;5081780;28;20099;-63
2022/10/24 02:00:00;;;;;;;9.60;9.10;;;;;;;8.10;100.00;101332.84;5079333;28;20020;-63
2022/10/24 02:02:32;;;;;;;10.52;9.98;;;;;;;8.19;100.00;101339.94;5078904;28;20085;-62
2022/10/24 02:05:15;;;;;;;9.70;9.20;;;;;;;8.08;100.00;101348.00;5086770;28;20020;-62
2022/10/24 02:07:44;;;;;;;9.68;9.18;;;;;;;8.05;100.00;101346.47;5081359;28;20024;-62
2022/10/24 02:10:15;;;;;;;9.57;9.07;;;;;;;7.99;100.00;101341.75;5082636;28;20031;-62
2022/10/24 02:12:48;;;;;;;9.20;8.80;;;;;;;8.01;100.00;101343.28;5080665;28;20395;-60
2022/10/24 02:15:24;;;;;;;9.68;9.18;;;;;;;8.03;100.00;101349.25;5087143;28;20066;-60
2022/10/24 02:17:50;;;;;;;9.65;9.15;;;;;;;7.99;100.00;101347.84;5081841;28;20028;-61
2022/10/24 02:20:15;;;;;;;9.68;9.18;;;;;;;7.94;100.00;101339.53;5085844;28;20467;-61
2022/10/24 02:22:56;;;;;;;9.60;9.10;;;;;;;7.95;100.00;101343.84;5084105;28;20031;-62
2022/10/24 02:25:29;;;;;;;9.43;8.98;;;;;;;7.97;100.00;101333.97;5079992;28;20081;-62
2022/10/24 02:28:02;;;;;;;9.93;9.43;;;;;;;7.89;100.00;101347.03;5080748;28;20035;-62
2022/10/24 02:30:32;;;;;;;9.60;9.10;;;;;;;7.83;100.00;101344.91;5075636;28;20066;-62
2022/10/24 02:32:58;;;;;;;9.48;9.02;;;;;;;7.78;100.00;101343.66;5084086;28;20051;-62
2022/10/24 02:35:28;;;;;;;9.48;9.02;;;;;;;7.79;100.00;101340.91;5081949;28;20017;-62
2022/10/24 02:38:00;;;;;;;9.65;9.15;;;;;;;7.82;100.00;101345.06;5084901;28;20064;-62
2022/10/24 02:40:26;;;;;;;9.75;9.25;;;;;;;7.71;100.00;101346.00;5084468;28;20024;-62
2022/10/24 02:42:55;;;;;;;9.85;9.35;;;;;;;7.68;100.00;101339.19;5084427;28;20081;-62
2022/10/24 02:45:22;;;;;;;9.40;8.93;;;;;;;7.60;100.00;101333.75;5083726;28;20436;-62
2022/10/24 02:47:51;;;;;;;9.80;9.30;;;;;;;7.69;100.00;101335.59;5081664;28;20026;-62
2022/10/24 02:50:17;;;;;;;9.43;8.98;;;;;;;7.64;100.00;101339.63;5089679;28;20048;-63
2022/10/24 02:52:42;;;;;;;9.32;8.90;;;;;;;7.64;100.00;101335.19;5083500;28;20042;-63
2022/10/24 02:55:10;;;;;;;9.35;8.90;;;;;;;7.56;100.00;101337.63;5086752;28;20024;-62
2022/10/24 02:57:36;;;;;;;9.60;9.10;;;;;;;7.53;100.00;101331.81;5087379;28;20107;-63
2022/10/24 03:00:03;;;;;;;9.18;8.77;;;;;;;7.52;100.00;101338.06;5084504;28;20024;-63
2022/10/24 03:02:28;;;;;;;9.70;9.20;;;;;;;7.38;100.00;101337.44;5086078;28;20037;-63
2022/10/24 03:04:54;;;;;;;9.88;9.38;;;;;;;7.29;100.00;101337.44;5085256;28;20016;-63
2022/10/24 03:07:19;;;;;;;10.15;9.65;;;;;;;7.35;100.00;101321.06;5081758;28;20028;-63
2022/10/24 03:09:44;;;;;;;10.35;9.85;;;;;;;7.32;100.00;101324.78;5087279;28;20028;-62
2022/10/24 03:12:15;;;;;;;9.77;9.27;;;;;;;7.27;100.00;101326.16;5093853;28;20420;-63
2022/10/24 03:14:40;;;;;;;10.40;9.90;;;;;;;7.23;100.00;101325.59;5092247;28;20031;-63
2022/10/24 03:17:06;;;;;;;10.00;9.50;;;;;;;7.17;100.00;101326.94;5088328;28;20016;-64
2022/10/24 03:19:31;;;;;;;10.10;9.60;;;;;;;7.24;100.00;101324.63;5085538;28;20025;-63
2022/10/24 03:21:57;;;;;;;10.02;9.52;;;;;;;7.26;100.00;101321.84;5090351;28;20106;-64
2022/10/24 03:24:22;;;;;;;10.10;9.60;;;;;;;7.35;100.00;101321.91;5090082;28;20388;-63
2022/10/24 03:26:51;;;;;;;9.88;9.38;;;;;;;7.36;100.00;101326.19;5078497;28;20093;-62
2022/10/24 03:29:17;;;;;;;10.02;9.52;;;;;;;7.46;100.00;101326.22;5090032;28;20015;-63
2022/10/24 03:31:42;;;;;;;9.80;9.30;;;;;;;7.24;100.00;101324.63;5085467;28;20032;-63
2022/10/24 03:34:08;;;;;;;9.55;9.07;;;;;;;6.98;100.00;101321.63;5089985;28;20027;-64
2022/10/24 03:36:34;;;;;;;10.52;9.95;;;;;;;6.87;100.00;101317.25;5083483;28;20032;-62
2022/10/24 03:39:00;;;;;;;9.98;9.48;;;;;;;6.85;100.00;101313.91;5082986;28;20483;-63
2022/10/24 03:41:25;;;;;;;10.63;10.02;;;;;;;6.38;100.00;101305.56;5087124;28;20032;-62
2022/10/24 03:43:51;;;;;;;10.60;10.00;;;;;;;6.51;100.00;101300.09;5079771;28;20052;-63
2022/10/24 03:46:16;;;;;;;10.27;9.77;;;;;;;6.38;100.00;101297.66;5079112;28;20496;-62
2022/10/24 03:48:42;;;;;;;10.52;9.95;;;;;;;5.78;100.00;101296.47;5088973;28;20016;-62
2022/10/24 03:51:07;;;;;;;10.20;9.70;;;;;;;6.06;100.00;101292.44;5087780;28;20468;-63
2022/10/24 03:53:33;;;;;;;10.50;9.90;;;;;;;5.86;100.00;101289.75;5085663;28;20024;-63
2022/10/24 03:55:59;;;;;;;10.90;10.30;;;;;;;5.78;100.00;101291.19;5081906;28;20093;-63
2022/10/24 03:58:25;;;;;;;10.90;10.30;;;;;;;5.69;100.00;101288.50;5085296;28;20020;-62
2022/10/24 04:00:51;;;;;;;10.95;10.32;;;;;;;6.09;100.00;101294.81;5076724;28;20782;-62
2022/10/24 04:03:17;;;;;;;10.98;10.38;;;;;;;5.73;100.00;101289.94;5085598;28;20024;-63
2022/10/24 04:05:42;;;;;;;10.10;9.60;;;;;;;5.72;100.00;101290.88;5084121;28;20027;-62
2022/10/24 04:08:08;;;;;;;9.88;9.38;;;;;;;5.91;100.00;101285.81;5088283;28;20016;-62
2022/10/24 04:10:34;;;;;;;9.65;9.15;;;;;;;5.88;100.00;101280.78;5084048;28;20035;-62
2022/10/24 04:12:59;;;;;;;9.70;9.20;;;;;;;5.95;100.00;101291.66;5086400;28;20368;-62
2022/10/24 04:15:25;;;;;;;9.73;9.23;;;;;;;5.95;100.00;101278.47;5085274;28;20107;-62
2022/10/24 04:17:50;;;;;;;10.05;9.55;;;;;;;5.94;100.00;101282.91;5087816;28;20039;-61
2022/10/24 04:20:19;;;;;;;9.63;9.13;;;;;;;5.79;100.00;101278.88;5085473;28;20027;-63
2022/10/24 04:22:45;;;;;;;9.82;9.32;;;;;;;5.91;100.00;101279.72;5089540;28;20084;-61
2022/10/24 04:25:11;;;;;;;10.10;9.60;;;;;;;5.29;100.00;101278.56;5083000;28;20455;-62
2022/10/24 04:27:39;;;;;;;9.60;9.10;;;;;;;5.26;100.00;101279.59;5086585;28;20051;-62
2022/10/24 04:30:12;;;;;;;11.15;10.55;;;;;;;5.20;100.00;101274.84;5083765;28;20118;-63
2022/10/24 04:32:37;;;;;;;9.80;9.30;;;;;;;5.12;100.00;101271.13;5086701;28;20493;-63
2022/10/24 04:35:04;;;;;;;9.98;9.48;;;;;;;5.23;100.00;101268.50;5084555;28;20032;-62
2022/10/24 04:37:29;;;;;;;9.93;9.43;;;;;;;5.25;100.00;101271.84;5085341;28;20020;-63
2022/10/24 04:39:55;;;;;;;10.85;10.25;;;;;;;5.23;100.00;101266.72;5081455;28;20028;-64
2022/10/24 04:42:21;;;;;;;9.88;9.38;;;;;;;5.25;100.00;101271.84;5088467;28;20465;-64
2022/10/24 04:44:47;;;;;;;11.75;11.05;;;;;;;5.36;100.00;101277.09;5082598;28;20042;-62
2022/10/24 04:47:13;;;;;;;10.25;9.68;;;;;;;5.53;100.00;101281.00;5086373;28;20024;-63
2022/10/24 04:49:38;;;;;;;11.82;11.13;;;;;;;5.73;100.00;101284.66;5080664;28;20024;-63
2022/10/24 04:52:04;;;;;;;10.13;9.57;;;;;;;-143.83;100.00;62900.06;5085669;28;20025;-63
2022/10/24 04:54:30;;;;;;;9.43;8.93;;;;;;;22.98;100.00;62900.06;5080541;28;20430;-63
2022/10/24 04:56:55;;;;;;;10.32;9.73;;;;;;;-143.83;100.00;62900.06;5086562;28;20119;-63
2022/10/24 04:59:21;;;;;;;9.77;9.27;;;;;;;-143.83;100.00;62900.06;5083009;28;20024;-63
2022/10/24 05:01:46;;;;;;;10.45;9.85;;;;;;;-143.83;100.00;62900.06;5080352;28;20055;-63
2022/10/24 05:04:13;;;;;;;9.98;9.48;;;;;;;-143.83;100.00;62900.06;5082437;28;20069;-64
2022/10/24 05:06:38;;;;;;;9.70;9.20;;;;;;;-143.83;100.00;62900.06;5083922;28;20046;-63
2022/10/24 05:09:04;;;;;;;9.68;9.18;;;;;;;-143.83;100.00;62900.06;5082486;28;20024;-62
2022/10/24 05:11:30;;;;;;;10.05;9.55;;;;;;;-143.83;100.00;62900.06;5084496;28;20120;-63
2022/10/24 05:13:56;;;;;;;9.93;9.43;;;;;;;-143.83;100.00;62900.06;5076692;28;20071;-63
2022/10/24 05:16:22;;;;;;;10.35;9.82;;;;;;;-143.83;100.00;62900.06;5084112;28;20047;-63
2022/10/24 05:18:48;;;;;;;10.00;9.50;;;;;;;-143.83;100.00;62900.06;5083243;28;20020;-61
2022/10/24 05:21:14;;;;;;;9.95;9.45;;;;;;;-143.83;100.00;62900.06;5083346;28;20035;-62
2022/10/24 05:23:39;;;;;;;10.15;9.65;;;;;;;-143.83;100.00;62900.06;5078025;28;20540;-62
2022/10/24 05:26:04;;;;;;;9.50;9.10;;;;;;;-143.83;100.00;62900.06;5068762;28;20038;-63
2022/10/24 05:28:30;;;;;;;9.60;9.20;;;;;;;-143.83;100.00;62900.06;5078983;28;20055;-62
2022/10/24 05:30:55;;;;;;;9.50;9.10;;;;;;;-143.83;100.00;62900.06;5077876;28;20024;-62
2022/10/24 05:33:22;;;;;;;9.93;9.43;;;;;;;-143.83;100.00;62900.06;5078875;28;20028;-62
2022/10/24 05:35:48;;;;;;;10.63;10.13;;;;;;;-143.83;100.00;62900.06;5082155;28;20083;-63
2022/10/24 05:38:14;;;;;;;10.85;10.35;;;;;;;-143.83;100.00;62900.06;5076589;28;20116;-64
2022/10/24 05:40:39;;;;;;;10.93;10.43;;;;;;;-143.83;100.00;62900.06;5075579;28;20107;-64
2022/10/24 05:43:22;;;;;;;11.25;10.75;;;;;;;-143.83;100.00;62900.06;5082566;28;20040;-64
2022/10/24 05:45:48;;;;;;;10.23;9.77;;;;;;;-143.83;100.00;62900.06;5076519;28;20027;-63
2022/10/24 05:48:14;;;;;;;10.07;9.68;;;;;;;-143.83;100.00;62900.06;5076144;28;20044;-63
2022/10/24 05:50:39;;;;;;;10.25;9.80;;;;;;;-143.83;100.00;62900.06;5086815;28;20529;-64
2022/10/24 05:53:07;;;;;;;10.48;9.98;;;;;;;-143.83;100.00;62900.06;5084024;28;20047;-63
2022/10/24 05:55:33;;;;;;;10.60;10.10;;;;;;;-143.83;100.00;62900.06;5083055;28;20028;-64
2022/10/24 05:57:59;;;;;;;10.60;10.10;;;;;;;-143.83;100.00;62900.06;5075412;28;20032;-64
2022/10/24 06:00:24;;;;;;;10.90;10.40;;;;;;;-143.83;100.00;62900.06;5082044;28;20038;-63
2022/10/24 06:02:50;;;;;;;10.50;10.00;;;;;;;-143.83;100.00;62900.06;5082876;28;20047;-63
2022/10/24 06:05:15;;;;;;;10.65;10.15;;;;;;;-143.83;100.00;62900.06;5078054;28;20065;-64
2022/10/24 06:07:41;;;;;;;10.73;10.23;;;;;;;-143.83;100.00;62900.06;5083051;28;20024;-64
2022/10/24 06:10:08;;;;;;;11.00;10.50;;;;;;;-143.83;100.00;62900.06;5084156;28;20032;-64
2022/10/24 06:12:35;;;;;;;10.50;10.00;;;;;;;-143.83;100.00;62900.06;5084400;28;20098;-64
2022/10/24 06:15:02;;;;;;;10.70;10.20;;;;;;;-143.83;100.00;62900.06;5082171;28;20056;-63
2022/10/24 06:17:27;;;;;;;10.60;10.10;;;;;;;-143.83;100.00;62900.06;5070750;28;20115;-68
2022/10/24 06:19:53;;;;;;;11.10;10.60;;;;;;;-143.83;100.00;62900.06;5079356;28;20099;-67
2022/10/24 06:22:19;;;;;;;10.70;10.20;;;;;;;-143.83;100.00;62900.06;5079206;28;20066;-68
2022/10/24 06:24:44;;;;;;;10.80;10.30;;;;;;;-143.83;100.00;62900.06;5088347;28;20077;-67
2022/10/24 06:27:10;;;;;;;10.48;9.98;;;;;;;-143.83;100.00;62900.06;5088435;28;20043;-68
2022/10/24 06:29:35;;;;;;;10.52;10.02;;;;;;;-143.83;100.00;62900.06;5089581;28;20038;-69
2022/10/24 06:32:01;;;;;;;10.88;10.38;;;;;;;-143.83;100.00;62900.06;5084053;28;20131;-68
2022/10/24 06:34:27;;;;;;;10.95;10.45;;;;;;;-143.83;100.00;62900.06;5089111;28;20136;-69
2022/10/24 06:36:53;;;;;;;10.57;10.07;;;;;;;-143.83;100.00;62900.06;5085636;28;20021;-67
2022/10/24 06:39:18;;;;;;;10.40;9.95;;;;;;;-143.83;100.00;62900.06;5088132;28;20055;-67
2022/10/24 06:41:44;;;;;;;10.75;10.25;;;;;;;-143.83;100.00;62900.06;5087435;28;20073;-69
2022/10/24 06:44:10;;;;;;;10.68;10.18;;;;;;;-143.83;100.00;62900.06;5087097;28;20092;-69
2022/10/24 06:46:35;;;;;;;10.25;9.85;;;;;;;-143.83;100.00;62900.06;5080932;28;20023;-69
2022/10/24 06:49:01;;;;;;;11.00;10.50;;;;;;;-143.83;100.00;62900.06;5082765;28;20460;-68
2022/10/24 06:51:26;;;;;;;10.57;10.07;;;;;;;-143.83;100.00;62900.06;5083841;28;20044;-68
2022/10/24 06:53:52;;;;;;;10.77;10.27;;;;;;;-143.83;100.00;62900.06;5087464;28;20390;-66
2022/10/24 06:56:17;;;;;;;10.52;10.02;;;;;;;-143.83;100.00;62900.06;5084462;28;20024;-67
2022/10/24 06:58:43;;;;;;;10.98;10.48;;;;;;;-143.83;100.00;62900.06;5082873;28;20035;-66
2022/10/24 07:01:11;;;;;;;10.85;10.35;;;;;;;-143.83;100.00;62900.06;5089390;28;20506;-67
2022/10/24 07:03:37;;;;;;;10.70;10.20;;;;;;;-143.83;100.00;62900.06;5087250;28;20024;-68
2022/10/24 07:06:14;;;;;;;10.93;10.43;;;;;;;-143.83;100.00;62900.06;5086270;28;20093;-67
2022/10/24 07:08:40;;;;;;;10.75;10.25;;;;;;;-143.83;100.00;62900.06;5085552;28;20020;-66
2022/10/24 07:11:05;;;;;;;11.20;10.70;;;;;;;-143.83;100.00;62900.06;5083087;28;20471;-67
2022/10/24 07:13:31;;;;;;;10.70;10.20;;;;;;;-143.83;100.00;62900.06;5083466;28;20479;-67
2022/10/24 07:15:56;;;;;;;10.77;10.27;;;;;;;-143.83;100.00;62900.06;5082105;28;20101;-68
2022/10/24 07:18:22;;;;;;;10.93;10.43;;;;;;;-143.83;100.00;62900.06;5087003;28;20448;-68
2022/10/24 07:20:47;;;;;;;10.68;10.18;;;;;;;-143.83;100.00;62900.06;5086046;28;20039;-68
2022/10/24 07:23:13;;;;;;;10.70;10.20;;;;;;;-143.83;100.00;62900.06;5083717;28;20028;-66
2022/10/24 07:25:40;;;;;;;11.25;10.75;;;;;;;-143.83;100.00;62900.06;5086416;28;20395;-67
2022/10/24 07:28:07;;;;;;;11.10;10.60;;;;;;;-143.83;100.00;62900.06;5087173;28;20017;-66
2022/10/24 07:30:32;;;;;;;11.00;10.50;;;;;;;-143.83;100.00;62900.06;5081963;28;20425;-68
2022/10/24 07:32:58;;;;;;;10.98;10.48;;;;;;;-143.83;100.00;62900.06;5089161;28;20047;-67
2022/10/24 07:35:24;;;;;;;10.52;10.02;;;;;;;-143.83;100.00;62900.06;5082925;28;20524;-66
2022/10/24 07:37:50;;;;;;;11.10;10.60;;;;;;;-143.83;100.00;62900.06;5087886;28;20039;-66
2022/10/24 07:40:16;;;;;;;10.50;10.00;;;;;;;-143.83;100.00;62900.06;5082516;28;20035;-68
2022/10/24 07:42:42;;;;;;;10.88;10.38;;;;;;;-143.83;100.00;62900.06;5082830;28;20102;-67
2022/10/24 07:45:08;;;;;;;10.98;10.48;;;;;;;-143.83;100.00;62900.06;5084615;28;20085;-68
2022/10/24 07:47:34;;;;;;;10.68;10.18;;;;;;;-143.83;100.00;62900.06;5082729;28;20029;-67
2022/10/24 07:49:59;;;;;;;11.00;10.50;;;;;;;-143.83;100.00;62900.06;5082981;28;20101;-66
2022/10/24 07:52:25;;;;;;;11.07;10.57;;;;;;;-143.83;100.00;62900.06;5088339;28;20063;-67
2022/10/24 07:54:54;;;;;;;11.30;10.80;;;;;;;-143.83;100.00;62900.06;5088552;28;20032;-68
2022/10/24 07:57:20;;;;;;;11.30;10.80;;;;;;;-143.83;100.00;62900.06;5082595;28;20020;-68
2022/10/24 07:59:45;;;;;;;10.50;10.00;;;;;;;-143.83;100.00;62900.06;5081312;28;20046;-69
2022/10/24 08:02:13;;;;;;;10.68;10.18;;;;;;;-143.83;100.00;62900.06;5083544;28;20031;-68
2022/10/24 08:04:39;;;;;;;10.35;9.85;;;;;;;-143.83;100.00;62900.06;5085531;28;20024;-68
2022/10/24 08:07:10;;;;;;;10.77;10.27;;;;;;;-143.83;100.00;62900.06;5087449;28;20111;-68
2022/10/24 08:09:40;;;;;;;10.45;9.95;;;;;;;-143.83;100.00;62900.06;5085560;28;20020;-69
2022/10/24 08:12:06;;;;;;;10.63;10.13;;;;;;;-143.83;100.00;62900.06;5089527;28;20024;-68
2022/10/24 08:14:32;;;;;;;10.30;9.85;;;;;;;-143.83;100.00;62900.06;5081232;28;20092;-69
2022/10/24 08:16:57;;;;;;;10.90;10.40;;;;;;;-143.83;100.00;62900.06;5084097;28;20029;-66
2022/10/24 08:19:22;;;;;;;11.00;10.50;;;;;;;-143.83;100.00;62900.06;5088450;28;20032;-67
2022/10/24 08:21:49;;;;;;;10.52;10.02;;;;;;;-143.83;100.00;62900.06;5078233;28;20032;-67
2022/10/24 08:24:15;;;;;;;10.68;10.18;;;;;;;-143.83;100.00;62900.06;5084004;28;20506;-67
2022/10/24 08:26:41;;;;;;;11.10;10.60;;;;;;;-143.83;100.00;62900.06;5081512;28;20039;-67
2022/10/24 08:29:10;;;;;;;10.90;10.40;;;;;;;-143.83;100.00;62900.06;5078960;28;20027;-65
2022/10/24 08:31:37;;;;;;;11.05;10.55;;;;;;;-143.83;100.00;62900.06;5081157;28;20020;-65
2022/10/24 08:34:04;;;;;;;10.82;10.32;;;;;;;-143.83;100.00;62900.06;5086177;28;20379;-66
2022/10/24 08:36:33;;;;;;;10.90;10.40;;;;;;;-143.83;100.00;62900.06;5087315;28;20028;-65
2022/10/24 08:39:00;;;;;;;10.80;10.30;;;;;;;-143.83;100.00;62900.06;5086192;28;20050;-65
2022/10/24 08:41:32;;;;;;;11.10;10.60;;;;;;;-143.83;100.00;62900.06;5084022;28;20114;-65
2022/10/24 08:44:00;;;;;;;11.25;10.75;;;;;;;-143.83;100.00;62900.06;5083185;28;20039;-68
2022/10/24 08:46:50;;;;;;;10.38;9.88;;;;;;;-143.83;100.00;62900.06;5082814;28;20040;-68
2022/10/24 08:49:38;;;;;;;10.60;10.10;;;;;;;-143.83;100.00;62900.06;5078930;28;20044;-67
2022/10/24 08:52:17;;;;;;;10.85;10.35;;;;;;;-143.83;100.00;62900.06;5084564;28;20126;-67
2022/10/24 08:54:45;;;;;;;10.75;10.25;;;;;;;-143.83;100.00;62900.06;5080682;28;20020;-67
2022/10/24 08:57:27;;;;;;;10.73;10.23;;;;;;;-143.83;100.00;62900.06;5100118;28;20499;-67
2022/10/24 08:59:57;;;;;;;10.60;10.10;;;;;;;-143.83;100.00;62900.06;5079938;28;20116;-67
2022/10/24 09:02:30;;;;;;;10.70;10.20;;;;;;;-143.83;100.00;62900.06;5081784;28;20082;-68
2022/10/24 09:05:00;;;;;;;10.70;10.20;;;;;;;-143.83;100.00;62900.06;5088196;28;20032;-68
2022/10/24 09:07:33;;;;;;;10.45;9.95;;;;;;;-143.83;100.00;62900.06;5078755;28;20403;-66
2022/10/24 09:10:14;;;;;;;10.32;9.90;;;;;;;-143.83;100.00;62900.06;5075164;28;20104;-67
2022/10/24 09:12:40;;;;;;;10.75;10.25;;;;;;;-143.83;100.00;62900.06;5080718;28;20150;-69
2022/10/24 09:15:14;;;;;;;10.20;9.80;;;;;;;-143.83;100.00;62900.06;5083640;28;20095;-68
2022/10/24 09:17:41;;;;;;;10.32;9.90;;;;;;;-143.83;100.00;62900.06;5084812;28;20077;-66
2022/10/24 09:20:24;;;;;;;10.52;10.02;;;;;;;-143.83;100.00;62900.06;5082920;28;20025;-68
2022/10/24 09:22:51;;;;;;;10.68;10.18;;;;;;;-143.83;100.00;62900.06;5087886;28;20023;-69
2022/10/24 09:25:31;;;;;;;10.80;10.30;;;;;;;-143.83;100.00;62900.06;5085107;28;20073;-68
2022/10/24 09:27:59;;;;;;;11.13;10.63;;;;;;;-143.83;100.00;62900.06;5086520;28;20111;-67
2022/10/24 09:30:26;;;;;;;10.77;10.27;;;;;;;-143.83;100.00;62900.06;5087386;28;20434;-67
2022/10/24 09:32:57;;;;;;;10.90;10.40;;;;;;;-143.83;100.00;62900.06;5084089;28;20036;-69
2022/10/24 09:35:26;;;;;;;10.68;10.18;;;;;;;-143.83;100.00;62900.06;5083216;28;20020;-67
2022/10/24 09:37:56;;;;;;;11.32;10.82;;;;;;;-143.83;100.00;62900.06;5082908;28;20059;-68
2022/10/24 09:40:26;;;;;;;11.10;10.60;;;;;;;-143.83;100.00;62900.06;5082522;28;20028;-67
2022/10/24 09:43:02;;;;;;;11.30;10.80;;;;;;;-143.83;100.00;62900.06;5083237;28;20036;-67
2022/10/24 09:45:45;;;;;;;10.65;10.15;;;;;;;-143.83;100.00;62900.06;5081570;28;20398;-67
2022/10/24 09:48:29;;;;;;;10.80;10.30;;;;;;;-143.83;100.00;62900.06;5083169;28;20020;-68
2022/10/24 09:50:55;;;;;;;12.05;11.45;;;;;;;-143.83;100.00;62900.06;5083146;28;20040;-68
2022/10/24 09:53:33;;;;;;;11.13;10.63;;;;;;;-143.83;100.00;62900.06;5082363;28;20032;-67
2022/10/24 09:56:06;;;;;;;11.10;10.60;;;;;;;-143.83;100.00;62900.06;5087890;28;20020;-67
2022/10/24 09:58:32;;;;;;;10.68;10.18;;;;;;;-143.83;100.00;62900.06;5088011;28;20127;-67
2022/10/24 10:01:16;;;;;;;10.80;10.30;;;;;;;-143.83;100.00;62900.06;5087759;28;20058;-68
2022/10/24 10:03:58;;;;;;;10.57;10.07;;;;;;;-143.83;100.00;62900.06;5086067;28;20036;-68
2022/10/24 10:06:24;;;;;;;11.20;10.70;;;;;;;-143.83;100.00;62900.06;5088656;28;20438;-68
2022/10/24 10:08:52;;;;;;;11.00;10.50;;;;;;;-143.83;100.00;62900.06;5092277;28;20062;-70
2022/10/24 10:11:25;;;;;;;10.77;10.27;;;;;;;-143.83;100.00;62900.06;5090680;28;20035;-67
2022/10/24 10:13:53;;;;;;;11.05;10.55;;;;;;;-143.83;100.00;62900.06;5086239;28;20039;-68
2022/10/24 10:16:28;;;;;;;10.93;10.43;;;;;;;-143.83;100.00;62900.06;5089066;28;20035;-68
2022/10/24 10:19:13;;;;;;;10.50;10.00;;;;;;;-143.83;100.00;62900.06;5089680;28;20085;-68
2022/10/24 10:22:03;;;;;;;10.73;10.23;;;;;;;-143.83;100.00;62900.06;5079637;28;20063;-67
2022/10/24 10:24:34;;;;;;;10.55;10.05;;;;;;;-143.83;100.00;62900.06;5088417;28;20055;-67
2022/10/24 10:27:01;;;;;;;10.45;9.95;;;;;;;-143.83;100.00;62900.06;5083772;28;20063;-69
2022/10/24 10:29:27;;;;;;;10.50;10.00;;;;;;;-143.83;100.00;62900.06;5089631;28;20055;-69
2022/10/24 10:32:15;;;;;;;11.50;11.00;;;;;;;-143.83;100.00;62900.06;5086827;28;20051;-68
2022/10/24 10:35:05;;;;;;;10.93;10.43;;;;;;;-143.83;100.00;62900.06;5087579;28;20027;-69
2022/10/24 10:37:35;;;;;;;10.88;10.38;;;;;;;-143.83;100.00;62900.06;5084979;28;20032;-68
2022/10/24 10:40:22;;;;;;;10.63;10.13;;;;;;;-143.83;100.00;62900.06;5090294;28;20496;-69
2022/10/24 10:43:02;;;;;;;11.27;10.77;;;;;;;-143.83;100.00;62900.06;5084325;28;20039;-68
2022/10/24 10:45:51;;;;;;;10.35;9.85;;;;;;;-143.83;100.00;62900.06;5082704;28;20078;-70
2022/10/24 10:48:37;;;;;;;10.50;10.00;;;;;;;-143.83;100.00;62900.06;5081477;28;20107;-70
2022/10/24 10:51:10;;;;;;;10.80;10.30;;;;;;;-143.83;100.00;62900.06;5080300;28;20499;-69
2022/10/24 10:53:35;;;;;;;10.55;10.05;;;;;;;-143.83;100.00;62900.06;5081834;28;20032;-69
2022/10/24 10:56:42;;;;;;;11.25;10.75;;;;;;;-143.83;100.00;62900.06;5082356;28;20446;-69
2022/10/24 10:59:40;;;;;;;11.18;10.68;;;;;;;-143.83;100.00;62900.06;5047707;28;20052;-68
2022/10/24 11:02:25;;;;;;;10.70;10.20;;;;;;;-143.83;100.00;62900.06;5033530;28;20120;-69
2022/10/24 11:05:16;;;;;;;11.15;10.65;;;;;;;-143.83;100.00;62900.06;5075019;28;20040;-69
2022/10/24 11:07:56;;;;;;;13.77;13.07;;;;;;;-143.83;100.00;62900.06;5087522;28;20107;-68
2022/10/24 11:10:26;;;;;;;10.25;9.77;;;;;;;-143.83;100.00;62900.06;5085449;28;20108;-69
2022/10/24 11:12:54;;;;;;;10.80;10.30;;;;;;;-143.83;100.00;62900.06;5085704;28;20036;-69
2022/10/24 11:15:26;;;;;;;10.32;9.82;;;;;;;-143.83;100.00;62900.06;5086344;28;20066;-71
2022/10/24 11:17:59;;;;;;;10.60;10.10;;;;;;;-143.83;100.00;62900.06;5080592;28;20560;-69